createdAt,value
2018-11-12T00:00:26.856Z,5.80
2018-11-12T00:02:58.019Z,5.90
2018-11-12T00:05:26.395Z,5.67
2018-11-12T00:07:54.783Z,5.67
2018-11-12T00:10:23.391Z,5.73
2018-11-12T00:12:52.071Z,5.00
2018-11-12T00:15:20.592Z,5.37
2018-11-12T00:17:48.960Z,5.33
2018-11-12T00:20:17.900Z,5.50
2018-11-12T00:22:46.763Z,5.13
2018-11-12T00:25:15.159Z,5.37
2018-11-12T00:27:43.577Z,5.47
2018-11-12T00:30:14.060Z,5.47
2018-11-12T00:32:43.150Z,5.13
2018-11-12T00:35:11.934Z,5.50
2018-11-12T00:37:41.227Z,4.90
2018-11-12T00:40:11.095Z,5.10
2018-11-12T00:42:39.768Z,4.50
2018-11-12T00:45:08.967Z,4.80
2018-11-12T00:47:37.486Z,4.23
2018-11-12T00:50:06.675Z,4.50
2018-11-12T00:52:35.362Z,4.60
2018-11-12T00:55:04.028Z,4.80
2018-11-12T00:57:32.386Z,3.90
2018-11-12T01:00:00.761Z,3.87
2018-11-12T01:02:29.351Z,3.77
2018-11-12T01:04:57.810Z,4.30
2018-11-12T01:07:26.203Z,4.20
2018-11-12T01:09:54.570Z,4.03
2018-11-12T01:12:22.954Z,4.50
2018-11-12T01:14:51.342Z,4.70
2018-11-12T01:17:19.923Z,4.20
2018-11-12T01:19:48.403Z,5.13
2018-11-12T01:22:16.797Z,4.90
2018-11-12T01:24:45.171Z,4.83
2018-11-12T01:27:13.766Z,5.03
2018-11-12T01:29:42.443Z,6.07
2018-11-12T01:32:10.914Z,5.83
2018-11-12T01:34:39.285Z,5.43
2018-11-12T01:37:07.678Z,5.00
2018-11-12T01:39:36.272Z,4.60
2018-11-12T01:42:04.922Z,4.33
2018-11-12T01:44:33.431Z,4.13
2018-11-12T01:47:02.099Z,3.97
2018-11-12T01:49:30.570Z,4.40
2018-11-12T01:51:58.952Z,4.40
2018-11-12T01:54:27.538Z,5.00
2018-11-12T01:56:56.211Z,4.67
2018-11-12T01:59:24.688Z,4.50
2018-11-12T02:01:53.095Z,4.57
2018-11-12T02:04:21.427Z,4.80
2018-11-12T02:06:50.024Z,4.27
2018-11-12T02:09:18.494Z,4.80
2018-11-12T02:11:46.867Z,4.70
2018-11-12T02:14:15.247Z,5.20
2018-11-12T02:16:43.612Z,4.40
2018-11-12T02:19:11.975Z,4.77
2018-11-12T02:21:40.375Z,4.10
2018-11-12T02:24:08.731Z,4.30
2018-11-12T02:26:37.104Z,5.40
2018-11-12T02:29:05.588Z,4.77
2018-11-12T02:31:34.188Z,4.97
2018-11-12T02:34:02.646Z,4.80
2018-11-12T02:36:31.038Z,4.53
2018-11-12T02:38:59.394Z,5.47
2018-11-12T02:41:27.968Z,5.57
2018-11-12T02:43:56.441Z,5.20
2018-11-12T02:46:24.812Z,6.80
2018-11-12T02:48:53.179Z,6.23
2018-11-12T02:51:21.767Z,5.90
2018-11-12T02:53:50.223Z,5.17
2018-11-12T02:56:18.593Z,5.00
2018-11-12T02:58:46.975Z,5.00
2018-11-12T03:01:19.846Z,4.40
2018-11-12T03:03:48.286Z,4.10
2018-11-12T03:06:16.680Z,4.90
2018-11-12T03:08:45.148Z,4.30
2018-11-12T03:11:13.744Z,5.00
2018-11-12T03:13:42.724Z,4.90
2018-11-12T03:16:11.370Z,4.47
2018-11-12T03:18:40.223Z,3.83
2018-11-12T03:21:08.696Z,4.30
2018-11-12T03:23:37.254Z,4.20
2018-11-12T03:26:05.834Z,4.20
2018-11-12T03:28:34.517Z,3.73
2018-11-12T03:31:02.975Z,3.60
2018-11-12T03:33:31.363Z,4.20
2018-11-12T03:35:59.723Z,3.93
2018-11-12T03:38:28.304Z,4.47
2018-11-12T03:40:56.771Z,3.97
2018-11-12T03:43:25.157Z,3.40
2018-11-12T03:45:53.736Z,3.80
2018-11-12T03:48:22.418Z,4.00
2018-11-12T03:50:50.880Z,4.13
2018-11-12T03:53:19.251Z,3.80
2018-11-12T03:55:47.640Z,4.50
2018-11-12T03:58:16.230Z,3.87
2018-11-12T04:00:44.718Z,3.97
2018-11-12T04:03:13.124Z,4.00
2018-11-12T04:05:41.498Z,4.73
2018-11-12T04:08:10.067Z,5.03
2018-11-12T04:12:07.995Z,4.30
2018-11-12T04:14:36.366Z,4.60
2018-11-12T04:17:04.734Z,4.90
2018-11-12T04:19:33.359Z,4.50
2018-11-12T04:22:01.827Z,4.17
2018-11-12T04:24:30.197Z,4.80
2018-11-12T04:26:58.577Z,4.30
2018-11-12T04:29:26.934Z,4.83
2018-11-12T04:31:55.310Z,4.20
2018-11-12T04:34:23.704Z,4.60
2018-11-12T04:36:52.279Z,4.17
2018-11-12T04:39:20.722Z,3.87
2018-11-12T04:41:49.122Z,3.83
2018-11-12T04:44:17.495Z,4.40
2018-11-12T04:46:45.862Z,4.80
2018-11-12T04:49:14.314Z,4.67
2018-11-12T04:51:42.689Z,6.27
2018-11-12T04:54:11.061Z,5.57
2018-11-12T04:56:39.443Z,5.37
2018-11-12T04:59:07.817Z,5.03
2018-11-12T05:01:36.175Z,5.73
2018-11-12T05:04:04.570Z,6.80
2018-11-12T05:06:32.942Z,7.30
2018-11-12T05:09:01.519Z,6.37
2018-11-12T05:11:30.191Z,6.97
2018-11-12T05:13:58.658Z,7.23
2018-11-12T05:16:27.029Z,7.27
2018-11-12T05:18:55.419Z,7.57
2018-11-12T05:21:28.906Z,8.03
2018-11-12T05:23:57.339Z,8.10
2018-11-12T05:26:25.770Z,7.63
2018-11-12T05:28:54.359Z,7.77
2018-11-12T05:31:22.946Z,7.20
2018-11-12T05:33:51.316Z,7.10
2018-11-12T05:36:19.698Z,6.50
2018-11-12T05:38:48.308Z,8.17
2018-11-12T05:41:16.778Z,7.30
2018-11-12T05:43:45.363Z,7.77
2018-11-12T05:46:13.840Z,7.10
2018-11-12T05:48:42.210Z,7.27
2018-11-12T05:51:10.592Z,8.37
2018-11-12T05:53:38.974Z,8.53
2018-11-12T05:56:07.349Z,8.00
2018-11-12T05:58:35.929Z,8.07
2018-11-12T06:01:04.395Z,8.77
2018-11-12T06:03:32.774Z,7.80
2018-11-12T06:06:01.146Z,8.17
2018-11-12T06:08:29.741Z,7.07
2018-11-12T06:10:58.406Z,7.23
2018-11-12T06:13:26.863Z,8.03
2018-11-12T06:15:55.247Z,7.73
2018-11-12T06:18:23.618Z,7.70
2018-11-12T06:20:52.200Z,8.10
2018-11-12T06:23:20.682Z,7.97
2018-11-12T06:25:49.043Z,7.57
2018-11-12T06:28:17.420Z,6.67
2018-11-12T06:30:46.014Z,6.70
2018-11-12T06:33:14.465Z,6.40
2018-11-12T06:35:42.835Z,5.50
2018-11-12T06:38:11.232Z,5.27
2018-11-12T06:40:39.819Z,5.47
2018-11-12T06:43:08.371Z,6.35
2018-11-12T06:45:36.667Z,5.13
2018-11-12T06:48:05.048Z,4.97
2018-11-12T06:50:33.876Z,4.80
2018-11-12T06:53:03.000Z,5.00
2018-11-12T06:55:31.373Z,4.80
2018-11-12T06:57:59.923Z,4.70
2018-11-12T07:00:29.882Z,4.67
2018-11-12T07:02:58.617Z,5.00
2018-11-12T07:05:27.354Z,4.60
2018-11-12T07:07:55.963Z,4.87
2018-11-12T07:10:25.707Z,4.70
2018-11-12T07:12:54.821Z,4.50
2018-11-12T07:15:24.566Z,4.80
2018-11-12T07:17:52.943Z,4.70
2018-11-12T07:20:22.826Z,4.57
2018-11-12T07:22:51.726Z,5.17
2018-11-12T07:25:21.841Z,5.20
2018-11-12T07:27:50.563Z,5.73
2018-11-12T07:30:27.706Z,4.57
2018-11-12T07:32:57.029Z,4.70
2018-11-12T07:35:26.074Z,4.40
2018-11-12T07:37:55.499Z,4.47
2018-11-12T07:40:24.476Z,3.87
2018-11-12T07:42:52.960Z,3.87
2018-11-12T07:45:25.705Z,3.70
2018-11-12T07:47:55.041Z,3.50
2018-11-12T07:50:24.779Z,3.27
2018-11-12T07:52:53.158Z,3.53
2018-11-12T07:55:22.941Z,3.37
2018-11-12T07:57:52.475Z,3.20
2018-11-12T08:00:24.288Z,2.97
2018-11-12T08:02:58.297Z,3.00
2018-11-12T08:05:26.937Z,3.43
2018-11-12T08:07:55.527Z,2.97
2018-11-12T08:10:24.206Z,2.90
2018-11-12T08:12:52.905Z,3.20
2018-11-12T08:15:21.578Z,3.13
2018-11-12T08:17:50.038Z,2.87
2018-11-12T08:20:19.969Z,3.10
2018-11-12T08:22:49.351Z,3.80
2018-11-12T08:25:17.777Z,2.93
2018-11-12T08:27:46.853Z,3.37
2018-11-12T08:30:18.249Z,3.03
2018-11-12T08:32:47.934Z,3.27
2018-11-12T08:35:16.487Z,3.50
2018-11-12T08:37:45.611Z,3.33
2018-11-12T08:40:15.833Z,3.27
2018-11-12T08:42:44.687Z,3.37
2018-11-12T08:45:13.422Z,3.07
2018-11-12T08:47:43.200Z,3.20
2018-11-12T08:50:13.229Z,3.07
2018-11-12T08:52:43.007Z,3.13
2018-11-12T08:55:13.296Z,3.43
2018-11-12T08:57:43.575Z,2.70
2018-11-12T09:00:12.470Z,2.70
2018-11-12T09:02:41.315Z,2.70
2018-11-12T09:05:11.250Z,3.50
2018-11-12T09:07:40.991Z,3.40
2018-11-12T09:10:10.291Z,3.40
2018-11-12T09:12:39.286Z,3.53
2018-11-12T09:15:08.199Z,3.00
2018-11-12T09:17:37.465Z,3.37
2018-11-12T09:20:06.245Z,3.43
2018-11-12T09:22:34.698Z,3.20
2018-11-12T09:25:03.093Z,3.07
2018-11-12T09:27:31.680Z,3.27
2018-11-12T09:30:00.349Z,3.00
2018-11-12T09:32:28.851Z,3.03
2018-11-12T09:34:57.227Z,3.00
2018-11-12T09:37:25.815Z,3.53
2018-11-12T09:39:54.286Z,2.83
2018-11-12T09:42:22.733Z,3.13
2018-11-12T09:44:51.237Z,3.23
2018-11-12T09:47:19.863Z,3.00
2018-11-12T09:49:48.453Z,3.30
2018-11-12T09:52:16.841Z,3.07
2018-11-12T09:54:46.510Z,3.60
2018-11-12T09:57:14.998Z,3.20
2018-11-12T09:59:45.324Z,3.00
2018-11-12T10:02:15.886Z,3.40
2018-11-12T10:04:45.561Z,3.27
2018-11-12T10:07:15.422Z,2.83
2018-11-12T10:09:45.843Z,3.60
2018-11-12T10:12:14.879Z,3.77
2018-11-12T10:14:44.008Z,3.17
2018-11-12T10:17:15.363Z,3.20
2018-11-12T10:19:39.679Z,2.93
2018-11-12T10:22:08.409Z,3.17
2018-11-12T10:24:37.963Z,3.30
2018-11-12T10:27:07.351Z,3.80
2018-11-12T10:29:36.044Z,3.70
2018-11-12T10:32:04.690Z,3.50
2018-11-12T10:34:33.070Z,3.60
2018-11-12T10:37:01.656Z,3.17
2018-11-12T10:39:30.352Z,3.20
2018-11-12T10:41:59.094Z,3.73
2018-11-12T10:44:27.562Z,3.83
2018-11-12T10:46:56.192Z,4.33
2018-11-12T10:49:24.885Z,3.70
2018-11-12T10:51:53.363Z,3.57
2018-11-12T10:54:22.113Z,3.50
2018-11-12T10:56:50.675Z,3.57
2018-11-12T10:59:19.134Z,3.40
2018-11-12T11:01:57.951Z,3.53
2018-11-12T11:04:30.419Z,3.73
2018-11-12T11:06:59.023Z,3.93
2018-11-12T11:09:27.487Z,3.53
2018-11-12T11:11:56.135Z,4.20
2018-11-12T11:14:24.624Z,3.20
2018-11-12T11:16:53.006Z,4.10
2018-11-12T11:19:21.390Z,6.13
2018-11-12T11:21:50.432Z,5.53
2018-11-12T11:24:18.907Z,4.33
2018-11-12T11:26:47.382Z,5.47
2018-11-12T11:29:15.876Z,3.80
2018-11-12T11:31:49.695Z,4.70
2018-11-12T11:34:18.328Z,4.13
2018-11-12T11:36:47.000Z,4.20
2018-11-12T11:39:15.467Z,3.80
2018-11-12T11:41:44.169Z,4.17
2018-11-12T11:44:12.849Z,4.30
2018-11-12T11:46:41.313Z,5.40
2018-11-12T11:49:09.718Z,4.73
2018-11-12T11:51:38.313Z,4.50
2018-11-12T11:54:06.970Z,4.90
2018-11-12T11:56:35.575Z,4.43
2018-11-12T11:59:03.814Z,4.90
2018-11-12T12:01:32.197Z,4.93
2018-11-12T12:04:01.477Z,4.80
2018-11-12T12:06:30.911Z,6.37
2018-11-12T12:08:59.318Z,6.57
2018-11-12T12:11:27.871Z,5.77
2018-11-12T12:13:56.363Z,6.00
2018-11-12T12:16:24.947Z,6.03
2018-11-12T12:18:53.462Z,5.80
2018-11-12T12:21:27.139Z,7.23
2018-11-12T12:23:55.602Z,6.53
2018-11-12T12:26:24.192Z,5.60
2018-11-12T12:28:52.675Z,6.37
2018-11-12T12:31:26.128Z,6.73
2018-11-12T12:33:54.494Z,6.23
2018-11-12T12:36:23.037Z,6.50
2018-11-12T12:38:51.250Z,6.40
2018-11-12T12:41:19.972Z,6.00
2018-11-12T12:43:48.651Z,6.73
2018-11-12T12:46:17.147Z,6.67
2018-11-12T12:48:45.771Z,7.40
2018-11-12T12:51:14.806Z,7.03
2018-11-12T12:53:43.280Z,6.30
2018-11-12T12:56:12.556Z,7.30
2018-11-12T12:58:40.966Z,7.00
2018-11-12T13:01:09.536Z,7.27
2018-11-12T13:03:37.919Z,7.20
2018-11-12T13:06:06.311Z,6.83
2018-11-12T13:08:35.346Z,7.77
2018-11-12T13:11:03.782Z,7.70
2018-11-12T13:13:32.367Z,7.90
2018-11-12T13:16:01.051Z,7.50
2018-11-12T13:18:29.738Z,8.00
2018-11-12T13:20:58.445Z,9.40
2018-11-12T13:23:27.130Z,10.10
2018-11-12T13:25:55.596Z,10.53
2018-11-12T13:28:24.200Z,9.73
2018-11-12T13:30:52.900Z,10.93
2018-11-12T13:33:21.362Z,12.10
2018-11-12T13:35:49.766Z,12.23
2018-11-12T13:38:18.375Z,12.87
2018-11-12T13:40:47.160Z,12.23
2018-11-12T13:43:15.835Z,13.60
2018-11-12T13:45:44.310Z,13.90
2018-11-12T13:48:12.920Z,13.40
2018-11-12T13:50:41.391Z,13.53
2018-11-12T13:53:10.095Z,14.37
2018-11-12T13:55:38.701Z,14.53
2018-11-12T13:58:07.190Z,14.97
2018-11-12T14:00:35.911Z,15.40
2018-11-12T14:03:04.573Z,14.27
2018-11-12T14:05:33.050Z,14.57
2018-11-12T14:08:01.467Z,15.00
2018-11-12T14:10:30.771Z,16.20
2018-11-12T14:12:59.739Z,14.87
2018-11-12T14:15:28.406Z,15.53
2018-11-12T14:17:57.218Z,15.20
2018-11-12T14:20:26.261Z,14.60
2018-11-12T14:22:54.679Z,14.43
2018-11-12T14:25:24.098Z,16.93
2018-11-12T14:27:53.956Z,21.53
2018-11-12T14:30:24.319Z,15.87
2018-11-12T14:32:52.949Z,14.93
2018-11-12T14:35:21.416Z,14.27
2018-11-12T14:37:49.802Z,13.80
2018-11-12T14:40:18.886Z,13.90
2018-11-12T14:42:47.384Z,14.43
2018-11-12T14:45:17.320Z,14.83
2018-11-12T14:47:46.439Z,14.20
2018-11-12T14:50:14.934Z,14.70
2018-11-12T14:52:43.381Z,15.53
2018-11-12T14:55:13.022Z,13.77
2018-11-12T14:57:41.395Z,14.50
2018-11-12T15:00:18.179Z,14.43
2018-11-12T15:02:46.743Z,14.80
2018-11-12T15:05:16.066Z,14.97
2018-11-12T15:07:44.679Z,15.10
2018-11-12T15:10:13.882Z,13.97
2018-11-12T15:12:43.136Z,13.37
2018-11-12T15:15:12.352Z,14.27
2018-11-12T15:17:41.116Z,15.00
2018-11-12T15:20:11.753Z,14.70
2018-11-12T15:22:40.556Z,14.83
2018-11-12T15:25:11.276Z,15.27
2018-11-12T15:27:40.177Z,16.10
2018-11-12T15:30:10.908Z,16.20
2018-11-12T15:32:39.815Z,15.73
2018-11-12T15:35:08.774Z,15.77
2018-11-12T15:37:37.323Z,15.90
2018-11-12T15:40:06.154Z,15.73
2018-11-12T15:42:34.802Z,15.60
2018-11-12T15:45:03.546Z,17.10
2018-11-12T15:47:32.141Z,17.70
2018-11-12T15:50:00.823Z,19.53
2018-11-12T15:52:29.320Z,17.90
2018-11-12T15:54:57.707Z,15.90
2018-11-12T15:57:26.438Z,21.53
2018-11-12T15:59:55.043Z,27.50
2018-11-12T16:02:23.596Z,25.00
2018-11-12T16:04:52.194Z,23.50
2018-11-12T16:07:20.678Z,20.47
2018-11-12T16:09:49.276Z,16.63
2018-11-12T16:12:18.043Z,15.83
2018-11-12T16:14:46.764Z,16.20
2018-11-12T16:17:15.181Z,16.43
2018-11-12T16:19:43.551Z,15.03
2018-11-12T16:22:12.160Z,15.73
2018-11-12T16:24:40.844Z,15.13
2018-11-12T16:27:09.330Z,13.63
2018-11-12T16:29:37.927Z,14.73
2018-11-12T16:32:06.622Z,12.03
2018-11-12T16:34:35.098Z,14.57
2018-11-12T16:37:03.519Z,14.20
2018-11-12T16:39:32.094Z,16.00
2018-11-12T16:42:00.623Z,15.00
2018-11-12T16:44:29.227Z,13.50
2018-11-12T16:46:57.922Z,12.50
2018-11-12T16:49:26.612Z,14.17
2018-11-12T16:51:55.384Z,14.00
2018-11-12T16:54:24.080Z,13.77
2018-11-12T16:56:53.144Z,12.60
2018-11-12T16:59:21.873Z,13.30
2018-11-12T17:01:50.513Z,14.60
2018-11-12T17:04:19.179Z,13.57
2018-11-12T17:06:47.850Z,13.87
2018-11-12T17:09:16.637Z,15.60
2018-11-12T17:11:45.476Z,16.73
2018-11-12T17:14:14.259Z,17.60
2018-11-12T17:16:42.646Z,14.80
2018-11-12T17:19:11.268Z,15.83
2018-11-12T17:21:40.043Z,12.93
2018-11-12T17:24:08.751Z,12.03
2018-11-12T17:26:37.238Z,12.70
2018-11-12T17:29:05.643Z,11.50
2018-11-12T17:31:34.095Z,12.07
2018-11-12T17:34:02.490Z,11.07
2018-11-12T17:36:31.213Z,10.93
2018-11-12T17:38:59.602Z,12.40
2018-11-12T17:41:28.016Z,10.80
2018-11-12T17:43:56.427Z,12.90
2018-11-12T17:46:25.064Z,11.20
2018-11-12T17:48:53.539Z,11.10
2018-11-12T17:51:22.036Z,11.50
2018-11-12T17:53:50.616Z,11.47
2018-11-12T17:56:19.295Z,12.17
2018-11-12T17:58:47.795Z,12.60
2018-11-12T18:01:16.435Z,14.50
2018-11-12T18:03:45.112Z,15.57
2018-11-12T18:06:13.622Z,16.90
2018-11-12T18:08:42.315Z,17.73
2018-11-12T18:11:10.796Z,17.37
2018-11-12T18:13:39.262Z,19.17
2018-11-12T18:16:07.576Z,18.23
2018-11-12T18:18:35.955Z,20.37
2018-11-12T18:21:04.587Z,21.90
2018-11-12T18:23:34.068Z,20.40
2018-11-12T18:26:02.536Z,22.20
2018-11-12T18:28:30.965Z,21.20
2018-11-12T18:30:59.470Z,19.90
2018-11-12T18:33:27.734Z,20.33
2018-11-12T18:35:56.340Z,17.83
2018-11-12T18:38:25.017Z,15.97
2018-11-12T18:40:53.486Z,16.13
2018-11-12T18:43:21.900Z,18.10
2018-11-12T18:45:50.472Z,17.60
2018-11-12T18:48:19.148Z,17.27
2018-11-12T18:50:47.731Z,18.87
2018-11-12T18:53:16.328Z,17.43
2018-11-12T18:55:45.025Z,18.07
2018-11-12T18:58:13.520Z,17.77
2018-11-12T19:00:42.135Z,17.53
2018-11-12T19:03:10.857Z,18.57
2018-11-12T19:05:39.378Z,17.23
2018-11-12T19:08:07.752Z,17.03
2018-11-12T19:10:36.222Z,17.00
2018-11-12T19:13:04.753Z,17.63
2018-11-12T19:15:35.670Z,18.30
2018-11-12T19:18:07.011Z,17.67
2018-11-12T19:20:35.543Z,17.80
2018-11-12T19:23:03.933Z,18.40
2018-11-12T19:25:32.553Z,17.37
2018-11-12T19:28:03.324Z,17.03
2018-11-12T19:30:31.858Z,16.80
2018-11-12T19:33:00.479Z,17.43
2018-11-12T19:35:30.266Z,16.80
2018-11-12T19:37:58.694Z,17.57
2018-11-12T19:40:28.588Z,17.67
2018-11-12T19:42:57.342Z,18.57
2018-11-12T19:45:25.718Z,18.20
2018-11-12T19:47:54.587Z,17.67
2018-11-12T19:50:24.236Z,19.33
2018-11-12T19:52:54.240Z,18.70
2018-11-12T19:55:22.943Z,17.13
2018-11-12T19:57:51.431Z,18.53
2018-11-12T20:00:21.413Z,17.97
2018-11-12T20:02:51.152Z,19.17
2018-11-12T20:05:19.534Z,20.20
2018-11-12T20:07:48.219Z,20.03
2018-11-12T20:10:17.908Z,19.10
2018-11-12T20:12:46.921Z,19.93
2018-11-12T20:15:16.796Z,19.10
2018-11-12T20:17:46.083Z,19.87
2018-11-12T20:20:17.299Z,17.57
2018-11-12T20:22:46.285Z,17.60
2018-11-12T20:25:15.760Z,17.73
2018-11-12T20:27:45.005Z,16.97
2018-11-12T20:30:15.491Z,16.43
2018-11-12T20:32:44.082Z,18.07
2018-11-12T20:35:12.667Z,18.03
2018-11-12T20:37:41.151Z,18.67
2018-11-12T20:40:10.599Z,18.03
2018-11-12T20:42:39.100Z,18.30
2018-11-12T20:45:08.249Z,17.40
2018-11-12T20:47:36.638Z,17.30
2018-11-12T20:50:05.667Z,17.33
2018-11-12T20:52:34.100Z,16.97
2018-11-12T20:55:02.459Z,16.47
2018-11-12T20:57:31.063Z,16.73
2018-11-12T20:59:59.551Z,15.20
2018-11-12T21:02:27.972Z,15.87
2018-11-12T21:04:56.546Z,15.83
2018-11-12T21:07:24.965Z,14.93
2018-11-12T21:09:53.350Z,15.37
2018-11-12T21:12:21.799Z,16.50
2018-11-12T21:14:50.195Z,15.60
2018-11-12T21:17:18.579Z,16.50
2018-11-12T21:19:46.955Z,16.50
2018-11-12T21:22:15.355Z,15.63
2018-11-12T21:24:43.895Z,16.27
2018-11-12T21:27:12.643Z,16.77
2018-11-12T21:29:41.483Z,16.70
2018-11-12T21:32:10.118Z,16.17
2018-11-12T21:34:38.739Z,16.20
2018-11-12T21:37:07.526Z,16.87
2018-11-12T21:39:35.930Z,17.03
2018-11-12T21:42:04.317Z,18.17
2018-11-12T21:44:32.714Z,17.73
2018-11-12T21:47:01.316Z,15.73
2018-11-12T21:49:29.810Z,16.63
2018-11-12T21:51:58.219Z,16.00
2018-11-12T21:54:26.542Z,14.43
2018-11-12T21:56:55.122Z,16.13
2018-11-12T21:59:23.662Z,15.03
2018-11-12T22:01:51.987Z,16.50
2018-11-12T22:04:20.371Z,16.20
2018-11-12T22:06:48.755Z,15.80
2018-11-12T22:09:17.134Z,15.43
2018-11-12T22:11:45.517Z,16.00
2018-11-12T22:14:14.134Z,14.73
2018-11-12T22:16:42.820Z,14.10
2018-11-12T22:19:11.385Z,16.17
2018-11-12T22:21:39.695Z,16.30
2018-11-12T22:24:08.066Z,16.00
2018-11-12T22:26:36.446Z,16.17
2018-11-12T22:29:05.267Z,16.30
2018-11-12T22:31:33.652Z,16.20
2018-11-12T22:34:02.027Z,16.10
2018-11-12T22:36:30.626Z,16.83
2018-11-12T22:38:59.087Z,16.77
2018-11-12T22:41:27.466Z,15.10
2018-11-12T22:43:55.883Z,16.43
2018-11-12T22:46:24.482Z,15.83
2018-11-12T22:48:53.148Z,16.30
2018-11-12T22:51:21.644Z,15.90
2018-11-12T22:53:50.062Z,16.93
2018-11-12T22:56:18.390Z,16.03
2018-11-12T22:58:46.788Z,16.10
2018-11-12T23:01:15.166Z,16.13
2018-11-12T23:03:43.544Z,15.70
2018-11-12T23:06:12.899Z,14.83
2018-11-12T23:08:42.035Z,15.57
2018-11-12T23:11:10.668Z,15.83
2018-11-12T23:13:39.392Z,14.53
2018-11-12T23:16:07.848Z,15.57
2018-11-12T23:18:36.231Z,14.37
2018-11-12T23:21:04.683Z,14.00
2018-11-12T23:23:33.272Z,14.63
2018-11-12T23:26:01.743Z,13.57
2018-11-12T23:28:30.352Z,14.23
2018-11-12T23:30:59.018Z,13.37
2018-11-12T23:33:27.487Z,12.83
2018-11-12T23:35:55.878Z,12.97
2018-11-12T23:38:24.459Z,13.50
2018-11-12T23:40:52.919Z,13.73
2018-11-12T23:43:21.302Z,15.07
2018-11-12T23:45:49.678Z,14.33
2018-11-12T23:48:18.064Z,13.57
2018-11-12T23:50:46.659Z,13.03
2018-11-12T23:53:15.137Z,13.13
2018-11-12T23:55:43.512Z,11.83
2018-11-12T23:58:11.891Z,11.33
